Deer Park, Alabama
Current Conditions -  °F | °C
As of 9:56 AM on Thursday 23 Oct 2014 (Local Time) from KMOB Reporting Station
Few Clouds Few Clouds  
Wind Chill: 60°   Ceiling: Unl
Heat Index: 60°   Visibility: 10mi
Dew Point: 47°   Wind: 8mph
Humidity: 62%   Direction: 60°ENE
Pressure: 30.14"   Gusts: NA
Location:  31.22°N, 88.31°W
Report Text: KMOB 231456Z 06007KT 10SM FEW060 16/08 A3014 RMK AO2 SLP203 T01560083 51016
Loading
Personal Weather Stations






























Interactive Weather Map
Tropical Storm Tracking
New forecast layout! Learn more

10-Day Weather Forecast

Advertisements
Track Severe Weather on mobile